createdAt,value
2022-07-31T00:00:20.531Z,101148.06
2022-07-31T00:02:47.088Z,101146.09
2022-07-31T00:05:13.965Z,101141.28
2022-07-31T00:07:40.703Z,101136.00
2022-07-31T00:10:08.224Z,101142.56
2022-07-31T00:12:35.123Z,101142.97
2022-07-31T00:15:04.145Z,101139.41
2022-07-31T00:17:32.590Z,101132.53
2022-07-31T00:19:59.448Z,101132.19
2022-07-31T00:22:25.980Z,101128.94
2022-07-31T00:24:52.463Z,101121.28
2022-07-31T00:27:18.946Z,101122.50
2022-07-31T00:29:45.447Z,101121.78
2022-07-31T00:32:11.967Z,101125.00
2022-07-31T00:34:38.492Z,101127.50
2022-07-31T00:37:05.515Z,101132.78
2022-07-31T00:39:32.652Z,101126.28
2022-07-31T00:41:59.243Z,101133.22
2022-07-31T00:44:26.033Z,101119.84
2022-07-31T00:46:52.718Z,101110.94
2022-07-31T00:49:19.882Z,101115.91
2022-07-31T00:51:46.818Z,101107.03
2022-07-31T00:54:18.620Z,101108.34
2022-07-31T00:56:50.290Z,101103.94
2022-07-31T00:59:16.897Z,101107.72
2022-07-31T01:01:51.083Z,101104.91
2022-07-31T01:04:19.023Z,101109.47
2022-07-31T01:06:47.100Z,101107.91
2022-07-31T01:09:14.694Z,101105.56
2022-07-31T01:12:06.020Z,101105.66
2022-07-31T01:14:38.883Z,101107.28
2022-07-31T01:17:07.181Z,101107.38
2022-07-31T01:19:43.618Z,101105.88
2022-07-31T01:22:44.186Z,101111.28
2022-07-31T01:25:13.680Z,101104.03
2022-07-31T01:28:27.732Z,101102.50
2022-07-31T01:31:27.747Z,101101.38
2022-07-31T01:34:08.203Z,101105.03
2022-07-31T01:36:39.591Z,101099.41
2022-07-31T01:39:06.389Z,101107.19
2022-07-31T01:41:39.580Z,101098.72
2022-07-31T01:44:07.833Z,101085.38
2022-07-31T01:46:43.685Z,101094.31
2022-07-31T01:49:12.517Z,101095.59
2022-07-31T01:51:41.665Z,101092.00
2022-07-31T01:54:08.817Z,101085.13
2022-07-31T01:56:37.782Z,101085.59
2022-07-31T01:59:05.728Z,101086.03
2022-07-31T02:01:50.714Z,101084.84
2022-07-31T02:04:19.817Z,101079.63
2022-07-31T02:06:51.030Z,101077.25
2022-07-31T02:09:19.952Z,101075.28
2022-07-31T02:11:53.707Z,101080.16
2022-07-31T02:14:22.830Z,101070.88
2022-07-31T02:16:50.106Z,101072.94
2022-07-31T02:19:17.338Z,101072.16
2022-07-31T02:21:43.939Z,101069.38
2022-07-31T02:24:10.551Z,101065.78
2022-07-31T02:26:39.231Z,101067.78
2022-07-31T02:29:08.531Z,101068.25
2022-07-31T02:32:02.844Z,101065.84
2022-07-31T02:34:31.549Z,101064.63
2022-07-31T02:37:00.593Z,101063.84
2022-07-31T02:39:30.594Z,101069.56
2022-07-31T02:42:01.228Z,101068.38
2022-07-31T02:44:31.200Z,101064.75
2022-07-31T02:46:59.537Z,101062.75
2022-07-31T02:49:27.687Z,101056.69
2022-07-31T02:51:55.679Z,101054.69
2022-07-31T02:54:24.879Z,101049.84
2022-07-31T02:56:53.435Z,101052.72
2022-07-31T02:59:19.858Z,101043.84
2022-07-31T03:01:47.039Z,101050.69
2022-07-31T03:04:13.788Z,101049.09
2022-07-31T03:06:40.451Z,101036.59
2022-07-31T03:09:07.174Z,101032.16
2022-07-31T03:11:33.702Z,101035.44
2022-07-31T03:14:03.330Z,101035.88
2022-07-31T03:16:31.257Z,101038.72
2022-07-31T03:18:57.874Z,101027.41
2022-07-31T03:21:25.216Z,101038.38
2022-07-31T03:23:52.099Z,101032.25
2022-07-31T03:26:19.058Z,101031.88
2022-07-31T03:28:45.763Z,101035.94
2022-07-31T03:31:12.405Z,101032.69
2022-07-31T03:33:38.928Z,101035.97
2022-07-31T03:36:06.098Z,101029.88
2022-07-31T03:38:40.720Z,101036.78
2022-07-31T03:41:09.215Z,101027.47
2022-07-31T03:43:44.223Z,101034.78
2022-07-31T03:46:17.331Z,101024.66
2022-07-31T03:48:44.826Z,101020.22
2022-07-31T03:51:11.540Z,101026.69
2022-07-31T03:53:38.617Z,101018.19
2022-07-31T03:56:07.178Z,101023.03
2022-07-31T03:58:34.055Z,101016.56
2022-07-31T04:01:04.619Z,101023.00
2022-07-31T04:03:34.866Z,101021.38
2022-07-31T04:06:01.455Z,101021.38
2022-07-31T04:08:27.982Z,101024.22
2022-07-31T04:10:54.473Z,101026.66
2022-07-31T04:13:20.997Z,101023.41
2022-07-31T04:15:47.639Z,101031.88
2022-07-31T04:18:14.164Z,101019.72
2022-07-31T04:20:40.719Z,101016.88
2022-07-31T04:23:07.311Z,101021.72
2022-07-31T04:25:33.915Z,101030.22
2022-07-31T04:28:01.433Z,101024.13
2022-07-31T04:30:27.958Z,101018.00
2022-07-31T04:32:54.497Z,101009.88
2022-07-31T04:35:22.119Z,101014.72
2022-07-31T04:37:48.747Z,101004.16
2022-07-31T04:40:15.969Z,101003.31
2022-07-31T04:42:42.677Z,101001.25
2022-07-31T04:45:09.714Z,100993.94
2022-07-31T04:47:37.141Z,101003.63
2022-07-31T04:50:04.788Z,101002.38
2022-07-31T04:52:31.322Z,101000.75
2022-07-31T04:54:57.818Z,101006.41
2022-07-31T04:57:24.339Z,101008.38
2022-07-31T04:59:57.837Z,101001.03
2022-07-31T05:02:26.571Z,101002.59
2022-07-31T05:04:56.635Z,101011.47
2022-07-31T05:07:24.079Z,101002.94
2022-07-31T05:09:54.205Z,101014.63
2022-07-31T05:12:20.737Z,101012.56
2022-07-31T05:14:47.253Z,101012.53
2022-07-31T05:17:13.859Z,101016.94
2022-07-31T05:19:40.393Z,101014.88
2022-07-31T05:22:07.223Z,101011.19
2022-07-31T05:24:34.315Z,101012.81
2022-07-31T05:27:02.463Z,101018.44
2022-07-31T05:29:29.693Z,101013.97
2022-07-31T05:31:59.574Z,101011.88
2022-07-31T05:34:26.659Z,101011.47
2022-07-31T05:36:56.412Z,101017.91
2022-07-31T05:39:23.026Z,101016.25
2022-07-31T05:41:51.363Z,101026.31
2022-07-31T05:44:17.864Z,101027.91
2022-07-31T05:46:44.357Z,101019.34
2022-07-31T05:49:11.007Z,101024.97
2022-07-31T05:51:37.610Z,101011.53
2022-07-31T05:54:04.144Z,101014.34
2022-07-31T05:56:30.625Z,101025.25
2022-07-31T05:58:57.122Z,101014.63
2022-07-31T06:01:24.158Z,101016.63
2022-07-31T06:03:52.120Z,101015.38
2022-07-31T06:06:19.226Z,101018.16
2022-07-31T06:08:45.790Z,101016.06
2022-07-31T06:11:12.327Z,101009.91
2022-07-31T06:13:38.917Z,101017.16
2022-07-31T06:16:12.106Z,101014.69
2022-07-31T06:18:38.618Z,101008.09
2022-07-31T06:21:05.156Z,101006.00
2022-07-31T06:23:32.328Z,101005.94
2022-07-31T06:25:59.011Z,101004.66
2022-07-31T06:28:37.845Z,100999.72
2022-07-31T06:31:22.083Z,100998.44
2022-07-31T06:33:49.678Z,100999.94
2022-07-31T06:36:17.436Z,101002.75
2022-07-31T06:38:43.943Z,101000.59
2022-07-31T06:41:10.450Z,100993.63
2022-07-31T06:43:37.126Z,101002.00
2022-07-31T06:46:03.658Z,100997.03
2022-07-31T06:48:30.189Z,100996.44
2022-07-31T06:51:14.525Z,100989.78
2022-07-31T06:53:43.236Z,100989.97
2022-07-31T06:56:09.735Z,100986.47
2022-07-31T06:58:36.270Z,100991.16
2022-07-31T07:01:02.837Z,100986.03
2022-07-31T07:03:29.432Z,100994.38
2022-07-31T07:05:55.943Z,100985.16
2022-07-31T07:08:22.597Z,100984.50
2022-07-31T07:10:49.113Z,100983.41
2022-07-31T07:13:15.617Z,100983.06
2022-07-31T07:15:42.097Z,100981.50
2022-07-31T07:18:08.619Z,100981.63
2022-07-31T07:20:35.177Z,100969.53
2022-07-31T07:23:01.675Z,100975.31
2022-07-31T07:25:28.806Z,100974.22
2022-07-31T07:27:56.667Z,100974.31
2022-07-31T07:30:23.773Z,100969.13
2022-07-31T07:32:50.278Z,100963.97
2022-07-31T07:35:16.882Z,100966.94
2022-07-31T07:37:43.368Z,100979.44
2022-07-31T07:40:10.169Z,100973.16
2022-07-31T07:42:36.672Z,100968.25
2022-07-31T07:45:08.324Z,100969.06
2022-07-31T07:48:02.271Z,100972.38
2022-07-31T07:50:22.814Z,100963.81
2022-07-31T07:52:54.200Z,100965.88
2022-07-31T07:55:20.730Z,100955.66
2022-07-31T07:57:47.268Z,100963.44
2022-07-31T08:00:14.340Z,100958.19
2022-07-31T08:02:42.571Z,100956.59
2022-07-31T08:05:09.284Z,100957.03
2022-07-31T08:07:41.833Z,100957.47
2022-07-31T08:10:09.984Z,100944.78
2022-07-31T08:12:37.003Z,100951.13
2022-07-31T08:15:04.531Z,100948.75
2022-07-31T08:17:31.180Z,100942.09
2022-07-31T08:19:57.748Z,100950.03
2022-07-31T08:22:24.271Z,100950.50
2022-07-31T08:24:50.799Z,100949.50
2022-07-31T08:27:39.577Z,100943.63
2022-07-31T08:30:08.305Z,100948.53
2022-07-31T08:32:34.940Z,100941.09
2022-07-31T08:35:01.728Z,100947.72
2022-07-31T08:38:01.378Z,100939.72
2022-07-31T08:40:18.019Z,100939.97
2022-07-31T08:42:46.280Z,100941.69
2022-07-31T08:45:14.130Z,100949.94
2022-07-31T08:47:42.220Z,100946.38
2022-07-31T08:50:12.132Z,100952.22
2022-07-31T08:52:41.887Z,100946.63
2022-07-31T08:55:09.460Z,100944.00
2022-07-31T08:57:36.959Z,100947.84
2022-07-31T09:00:09.983Z,100959.19
2022-07-31T09:02:39.204Z,100965.09
2022-07-31T09:05:06.036Z,100966.13
2022-07-31T09:07:32.523Z,100962.25
2022-07-31T09:09:59.068Z,100969.53
2022-07-31T09:12:34.475Z,100965.31
2022-07-31T09:15:01.617Z,100959.69
2022-07-31T09:17:33.382Z,100963.19
2022-07-31T09:20:00.392Z,100954.38
2022-07-31T09:22:31.350Z,100961.91
2022-07-31T09:25:08.726Z,100959.22
2022-07-31T09:27:35.225Z,100955.56
2022-07-31T09:30:02.251Z,100954.44
2022-07-31T09:32:28.751Z,100949.63
2022-07-31T09:34:55.298Z,100953.28
2022-07-31T09:37:25.780Z,100953.38
2022-07-31T09:39:54.255Z,100948.03
2022-07-31T09:42:21.653Z,100947.56
2022-07-31T09:44:50.031Z,100948.72
2022-07-31T09:47:21.885Z,100954.88
2022-07-31T09:49:56.696Z,100948.03
2022-07-31T09:52:23.258Z,100947.22
2022-07-31T09:55:01.111Z,100944.91
2022-07-31T09:57:28.108Z,100945.97
2022-07-31T09:59:55.563Z,100951.59
2022-07-31T10:02:27.920Z,100950.22
2022-07-31T10:04:57.258Z,100959.84
2022-07-31T10:07:32.686Z,100954.81
2022-07-31T10:10:01.218Z,100954.69
2022-07-31T10:12:29.745Z,100948.09
2022-07-31T10:14:58.843Z,100948.44
2022-07-31T10:17:34.956Z,100955.75
2022-07-31T10:20:05.612Z,100953.47
2022-07-31T10:22:40.360Z,100959.28
2022-07-31T10:25:12.652Z,100956.88
2022-07-31T10:27:40.845Z,100951.59
2022-07-31T10:30:08.450Z,100939.84
2022-07-31T10:32:35.802Z,100944.75
2022-07-31T10:35:05.810Z,100943.59
2022-07-31T10:37:38.581Z,100949.66
2022-07-31T10:40:33.947Z,100945.19
2022-07-31T10:43:11.868Z,100942.22
2022-07-31T10:45:51.976Z,100932.41
2022-07-31T10:48:19.870Z,100938.34
2022-07-31T10:50:47.359Z,100933.00
2022-07-31T10:53:16.807Z,100936.31
2022-07-31T10:55:43.956Z,100932.22
2022-07-31T10:58:19.794Z,100931.84
2022-07-31T11:00:46.354Z,100931.28
2022-07-31T11:03:16.141Z,100924.34
2022-07-31T11:06:01.004Z,100928.88
2022-07-31T11:08:40.965Z,100924.22
2022-07-31T11:11:07.614Z,100919.44
2022-07-31T11:13:45.566Z,100927.94
2022-07-31T11:16:12.329Z,100927.16
2022-07-31T11:18:39.018Z,100922.34
2022-07-31T11:21:38.063Z,100922.59
2022-07-31T11:24:02.301Z,100915.59
2022-07-31T11:26:33.026Z,100927.50
2022-07-31T11:29:00.130Z,100918.25
2022-07-31T11:31:46.647Z,100922.44
2022-07-31T11:34:13.123Z,100911.56
2022-07-31T11:36:44.112Z,100904.78
2022-07-31T11:39:13.041Z,100902.03
2022-07-31T11:41:44.354Z,100913.94
2022-07-31T11:44:12.216Z,100906.84
2022-07-31T11:46:38.757Z,100905.88
2022-07-31T11:49:05.817Z,100918.13
2022-07-31T11:51:32.392Z,100910.03
2022-07-31T11:54:00.002Z,100917.81
2022-07-31T11:56:27.671Z,100917.00
2022-07-31T11:58:57.496Z,100910.50
2022-07-31T12:01:27.328Z,100915.88
2022-07-31T12:03:53.914Z,100906.56
2022-07-31T12:06:21.674Z,100907.50
2022-07-31T12:08:49.948Z,100906.72
2022-07-31T12:11:20.581Z,100920.66
2022-07-31T12:13:48.843Z,100906.84
2022-07-31T12:16:16.375Z,100904.44
2022-07-31T12:18:58.985Z,100906.63
2022-07-31T12:21:33.946Z,100909.59
2022-07-31T12:24:01.068Z,100905.94
2022-07-31T12:26:30.511Z,100902.88
2022-07-31T12:28:58.334Z,100897.25
2022-07-31T12:31:25.386Z,100900.13
2022-07-31T12:33:51.998Z,100901.03
2022-07-31T12:36:18.709Z,100902.66
2022-07-31T12:38:48.335Z,100903.78
2022-07-31T12:41:15.656Z,100913.06
2022-07-31T12:43:51.496Z,100901.13
2022-07-31T12:46:34.928Z,100898.75
2022-07-31T12:49:01.565Z,100887.28
2022-07-31T12:51:44.986Z,100890.28
2022-07-31T12:54:15.824Z,100896.94
2022-07-31T12:56:43.000Z,100893.72
2022-07-31T12:59:10.314Z,100890.19
2022-07-31T13:01:37.553Z,100896.47
2022-07-31T13:04:07.861Z,100891.69
2022-07-31T13:06:44.585Z,100887.00
2022-07-31T13:09:11.086Z,100880.97
2022-07-31T13:11:46.680Z,100878.91
2022-07-31T13:14:19.804Z,100869.41
2022-07-31T13:16:48.430Z,100867.88
2022-07-31T13:19:15.726Z,100861.94
2022-07-31T13:21:49.195Z,100860.75
2022-07-31T13:24:20.389Z,100852.25
2022-07-31T13:26:48.399Z,100848.78
2022-07-31T13:29:15.489Z,100852.34
2022-07-31T13:31:42.205Z,100847.72
2022-07-31T13:34:08.744Z,100838.25
2022-07-31T13:36:38.815Z,100839.38
2022-07-31T13:39:06.859Z,100832.25
2022-07-31T13:41:35.319Z,100827.19
2022-07-31T13:44:02.608Z,100831.53
2022-07-31T13:46:29.434Z,100830.13
2022-07-31T13:48:59.559Z,100827.94
2022-07-31T13:51:28.935Z,100822.41
2022-07-31T13:53:55.756Z,100818.94
2022-07-31T13:56:34.044Z,100822.94
2022-07-31T13:59:06.774Z,100820.72
2022-07-31T14:02:03.325Z,100814.53
2022-07-31T14:04:23.536Z,100811.97
2022-07-31T14:06:50.723Z,100825.69
2022-07-31T14:09:19.150Z,100813.31
2022-07-31T14:11:45.749Z,100813.53
2022-07-31T14:14:12.381Z,100807.53
2022-07-31T14:16:39.533Z,100810.22
2022-07-31T14:19:06.048Z,100798.63
2022-07-31T14:21:34.546Z,100797.34
2022-07-31T14:24:01.105Z,100805.50
2022-07-31T14:26:27.598Z,100790.84
2022-07-31T14:28:54.166Z,100791.63
2022-07-31T14:31:20.736Z,100784.63
2022-07-31T14:33:47.403Z,100789.09
2022-07-31T14:36:14.582Z,100783.38
2022-07-31T14:38:41.141Z,100787.47
2022-07-31T14:41:07.671Z,100785.88
2022-07-31T14:43:34.193Z,100793.81
2022-07-31T14:46:00.695Z,100797.31
2022-07-31T14:48:27.457Z,100786.81
2022-07-31T14:50:54.189Z,100790.59
2022-07-31T14:53:20.724Z,100791.53
2022-07-31T14:55:47.276Z,100786.28
2022-07-31T14:58:13.781Z,100779.84
2022-07-31T15:00:40.381Z,100781.63
2022-07-31T15:03:07.329Z,100780.47
2022-07-31T15:06:39.238Z,100782.22
2022-07-31T15:08:20.441Z,100782.53
2022-07-31T15:10:46.954Z,100781.63
2022-07-31T15:13:13.519Z,100777.78
2022-07-31T15:15:40.028Z,100774.47
2022-07-31T15:18:06.506Z,100773.19
2022-07-31T15:20:35.275Z,100773.69
2022-07-31T15:23:02.145Z,100772.06
2022-07-31T15:25:28.799Z,100774.63
2022-07-31T15:27:55.330Z,100771.09
2022-07-31T15:30:22.627Z,100769.16
2022-07-31T15:32:52.055Z,100775.97
2022-07-31T15:35:18.678Z,100764.19
2022-07-31T15:37:45.785Z,100759.88
2022-07-31T15:40:17.071Z,100755.19
2022-07-31T15:42:46.494Z,100747.88
2022-07-31T15:45:15.878Z,100738.81
2022-07-31T15:47:43.894Z,100736.16
2022-07-31T15:50:12.682Z,100737.16
2022-07-31T15:52:39.668Z,100727.94
2022-07-31T15:55:07.396Z,100728.13
2022-07-31T15:57:33.886Z,100721.47
2022-07-31T16:00:00.801Z,100721.78
2022-07-31T16:02:27.376Z,100727.03
2022-07-31T16:04:55.597Z,100720.03
2022-07-31T16:08:34.120Z,100716.69
2022-07-31T16:10:17.665Z,100721.97
2022-07-31T16:12:48.594Z,100711.78
2022-07-31T16:15:17.007Z,100703.66
2022-07-31T16:17:44.313Z,100702.06
2022-07-31T16:20:25.315Z,100707.13
2022-07-31T16:22:58.018Z,100700.28
2022-07-31T16:25:25.849Z,100699.97
2022-07-31T16:27:52.974Z,100711.88
2022-07-31T16:30:19.670Z,100716.97
2022-07-31T16:32:46.157Z,100741.72
2022-07-31T16:35:13.027Z,100754.41
2022-07-31T16:37:52.320Z,100745.84
2022-07-31T16:40:26.876Z,100744.63
2022-07-31T16:42:56.251Z,100739.22
2022-07-31T16:45:22.845Z,100737.81
2022-07-31T16:47:51.458Z,100726.72
2022-07-31T16:50:18.795Z,100729.38
2022-07-31T16:52:45.337Z,100718.41
2022-07-31T16:55:11.915Z,100708.91
2022-07-31T16:57:38.422Z,100709.16
2022-07-31T17:00:05.531Z,100706.50
2022-07-31T17:02:32.029Z,100702.13
2022-07-31T17:04:58.521Z,100703.50
2022-07-31T17:07:25.039Z,100708.53
2022-07-31T17:09:51.754Z,100691.06
2022-07-31T17:12:20.317Z,100694.38
2022-07-31T17:14:48.509Z,100686.25
2022-07-31T17:17:15.638Z,100685.44
2022-07-31T17:19:46.549Z,100673.72
2022-07-31T17:22:17.501Z,100679.41
2022-07-31T17:24:50.705Z,100683.06
2022-07-31T17:27:18.379Z,100685.91
2022-07-31T17:29:45.206Z,100680.66
2022-07-31T17:32:11.783Z,100673.38
2022-07-31T17:34:39.242Z,100678.25
2022-07-31T17:37:07.072Z,100681.09
2022-07-31T17:39:33.927Z,100689.66
2022-07-31T17:42:00.538Z,100736.59
2022-07-31T17:44:27.367Z,100739.53
2022-07-31T17:46:54.786Z,100798.06
2022-07-31T17:49:21.463Z,100793.56
2022-07-31T17:51:59.234Z,100784.31
2022-07-31T17:54:34.889Z,100772.75
2022-07-31T17:57:02.088Z,100773.38
2022-07-31T17:59:29.150Z,100759.28
2022-07-31T18:02:02.078Z,100769.50
2022-07-31T18:04:31.374Z,100758.09
2022-07-31T18:06:58.979Z,100759.53
2022-07-31T18:09:25.860Z,100757.28
2022-07-31T18:11:53.433Z,100763.94
2022-07-31T18:14:20.867Z,100769.31
2022-07-31T18:16:51.625Z,100769.03
2022-07-31T18:19:18.315Z,100773.59
2022-07-31T18:21:44.836Z,100771.94
2022-07-31T18:24:11.310Z,100775.25
2022-07-31T18:26:37.888Z,100783.44
2022-07-31T18:29:05.075Z,100783.84
2022-07-31T18:31:35.365Z,100785.09
2022-07-31T18:34:04.529Z,100787.59
2022-07-31T18:36:31.871Z,100781.00
2022-07-31T18:38:58.508Z,100778.16
2022-07-31T18:41:25.055Z,100778.59
2022-07-31T18:43:51.612Z,100785.53
2022-07-31T18:46:19.911Z,100785.16
2022-07-31T18:48:46.607Z,100791.69
2022-07-31T18:51:13.238Z,100792.09
2022-07-31T18:53:39.887Z,100798.56
2022-07-31T18:56:06.411Z,100784.81
2022-07-31T18:58:32.972Z,100795.72
2022-07-31T19:00:59.524Z,100794.53
2022-07-31T19:03:26.509Z,100796.13
2022-07-31T19:05:53.601Z,100800.56
2022-07-31T19:08:20.708Z,100798.06
2022-07-31T19:10:49.337Z,100802.53
2022-07-31T19:13:19.180Z,100815.53
2022-07-31T19:15:47.446Z,100819.97
2022-07-31T19:18:15.146Z,100824.41
2022-07-31T19:21:00.295Z,100813.03
2022-07-31T19:23:31.983Z,100820.75
2022-07-31T19:26:03.674Z,100812.66
2022-07-31T19:28:34.546Z,100817.19
2022-07-31T19:31:01.150Z,100808.66
2022-07-31T19:33:27.709Z,100815.56
2022-07-31T19:36:00.882Z,100818.88
2022-07-31T19:38:28.783Z,100819.28
2022-07-31T19:40:55.509Z,100816.09
2022-07-31T19:43:22.251Z,100812.44
2022-07-31T19:46:00.545Z,100815.75
2022-07-31T19:48:36.605Z,100819.38
2022-07-31T19:51:03.517Z,100815.75
2022-07-31T19:53:30.379Z,100827.53
2022-07-31T19:55:57.397Z,100838.09
2022-07-31T19:58:23.965Z,100832.84
2022-07-31T20:00:50.524Z,100835.69
2022-07-31T20:03:17.157Z,100830.47
2022-07-31T20:05:43.744Z,100832.06
2022-07-31T20:08:10.462Z,100826.38
2022-07-31T20:10:37.233Z,100844.69
2022-07-31T20:13:03.992Z,100834.53
2022-07-31T20:15:50.863Z,100841.44
2022-07-31T20:18:27.697Z,100837.44
2022-07-31T20:21:06.834Z,100844.44
2022-07-31T20:23:36.666Z,100844.44
2022-07-31T20:26:03.551Z,100834.34
2022-07-31T20:28:30.116Z,100837.25
2022-07-31T20:30:56.725Z,100843.38
2022-07-31T20:33:23.309Z,100837.28
2022-07-31T20:35:50.596Z,100838.53
2022-07-31T20:38:21.302Z,100837.38
2022-07-31T20:40:53.485Z,100840.22
2022-07-31T20:43:26.775Z,100838.19
2022-07-31T20:45:57.077Z,100834.94
2022-07-31T20:48:27.206Z,100831.31
2022-07-31T20:50:53.776Z,100835.00
2022-07-31T20:53:21.613Z,100832.59
2022-07-31T20:55:50.054Z,100839.19
2022-07-31T20:58:17.721Z,100834.28
2022-07-31T21:00:45.345Z,100831.81
2022-07-31T21:03:11.857Z,100839.53
2022-07-31T21:05:38.477Z,100841.19
2022-07-31T21:08:05.124Z,100839.22
2022-07-31T21:10:31.765Z,100836.81
2022-07-31T21:12:58.333Z,100848.16
2022-07-31T21:15:40.951Z,100845.78
2022-07-31T21:18:08.161Z,100839.28
2022-07-31T21:20:52.013Z,100837.69
2022-07-31T21:23:25.545Z,100842.97
2022-07-31T21:25:54.097Z,100838.13
2022-07-31T21:28:21.081Z,100842.94
2022-07-31T21:30:47.772Z,100846.16
2022-07-31T21:33:14.688Z,100839.28
2022-07-31T21:35:41.495Z,100850.66
2022-07-31T21:38:11.914Z,100844.59
2022-07-31T21:40:40.302Z,100862.47
2022-07-31T21:43:07.326Z,100849.84
2022-07-31T21:45:50.809Z,100854.72
2022-07-31T21:48:22.753Z,100850.72
2022-07-31T21:50:49.678Z,100849.09
2022-07-31T21:53:16.335Z,100855.22
2022-07-31T21:55:42.906Z,100861.75
2022-07-31T21:58:09.732Z,100863.81
2022-07-31T22:00:36.935Z,100860.59
2022-07-31T22:03:04.263Z,100867.09
2022-07-31T22:05:50.267Z,100856.94
2022-07-31T22:08:17.228Z,100857.75
2022-07-31T22:10:44.426Z,100861.41
2022-07-31T22:13:11.017Z,100857.75
2022-07-31T22:15:55.386Z,100861.81
2022-07-31T22:18:26.518Z,100862.63
2022-07-31T22:20:53.890Z,100869.13
2022-07-31T22:23:21.116Z,100861.00
2022-07-31T22:25:49.081Z,100865.44
2022-07-31T22:28:18.962Z,100870.78
2022-07-31T22:30:46.256Z,100865.09
2022-07-31T22:33:12.916Z,100865.09
2022-07-31T22:35:40.812Z,100865.53
2022-07-31T22:38:08.824Z,100866.78
2022-07-31T22:40:35.724Z,100871.22
2022-07-31T22:43:03.467Z,100873.25
2022-07-31T22:45:30.430Z,100874.84
2022-07-31T22:47:57.627Z,100870.81
2022-07-31T22:50:24.485Z,100872.47
2022-07-31T22:52:51.529Z,100874.91
2022-07-31T22:55:18.128Z,100878.53
2022-07-31T22:57:45.030Z,100879.78
2022-07-31T23:00:15.434Z,100878.19
2022-07-31T23:02:42.964Z,100876.94
2022-07-31T23:05:10.423Z,100879.00
2022-07-31T23:07:37.605Z,100879.00
2022-07-31T23:10:07.901Z,100877.75
2022-07-31T23:12:34.712Z,100881.38
2022-07-31T23:15:01.226Z,100877.75
2022-07-31T23:17:27.731Z,100876.50
2022-07-31T23:19:54.808Z,100882.19
2022-07-31T23:22:33.404Z,100883.44
2022-07-31T23:25:03.409Z,100876.50
2022-07-31T23:27:29.945Z,100883.44
2022-07-31T23:29:56.524Z,100883.44
2022-07-31T23:32:22.991Z,100884.66
2022-07-31T23:34:49.501Z,100876.94
2022-07-31T23:37:16.006Z,100878.53
2022-07-31T23:39:42.527Z,100882.19
2022-07-31T23:42:27.493Z,100876.50
2022-07-31T23:44:54.060Z,100878.13
2022-07-31T23:47:23.788Z,100876.50
2022-07-31T23:49:50.302Z,100880.16
2022-07-31T23:52:16.783Z,100875.31
2022-07-31T23:54:43.298Z,100879.34
2022-07-31T23:57:09.811Z,100882.19
2022-07-31T23:59:36.351Z,100871.25
